SBCG Airport Information

Runway Information
Runway 6 Length 8530 ft width 141 ft
Elevation 0 ft Threshold 0 ft Heading 0
Runway 24 Length 8530 ft Width 141 ft
Elevation 0 ft Threshold 0 ft Heading 0
Airport Frequencies
Type APP Name APP Frequency 120.2 MHZ
Type GND Name GND Frequency 121.9 MHZ
Type OPS Name OPS Frequency 122.5 MHZ
Type TWR Name TWR Frequency 118.1 MHZ
Airport Navaids
Type VOR-DME Name Campo Grande Frequency 115700 KHZ
Type NDB Name Campo Grande Frequency 270 KHZ
Type NDB Name Soja Frequency 395 KHZ
Type NDB Name Maraca Frequency 215 KHZ
Airport Weather Information & NOTAM
ADDS - METARS form results

(0850 UTC 24 April 2018)
 
METAR text: SBCG 240800Z 11010KT CAVOK 22/16 Q1016
Conditions at: SBCG (CAMPO GRANDE INT, BR) observed 0800 UTC 24 April 2018
Temperature: 22.0°C (72°F)
Dewpoint: 16.0°C (61°F) [RH = 69%]
Pressure (altimeter): 30.00 inches Hg (1016.0 mb)
Winds: from the ESE (110 degrees) at 12 MPH (10 knots; 5.2 m/s)
Visibility: 6 or more miles (10+ km)
Ceiling: ceiling and visibility are OK
Clouds: unknown
Weather: no significant weather observed at this time